createdAt,value
2022-10-02T00:03:00.983Z,81.53
2022-10-02T00:06:13.753Z,81.56
2022-10-02T00:09:29.072Z,81.57
2022-10-02T00:12:36.015Z,81.62
2022-10-02T00:15:42.158Z,81.60
2022-10-02T00:18:47.442Z,81.59
2022-10-02T00:22:21.990Z,81.66
2022-10-02T00:25:57.769Z,81.74
2022-10-02T00:29:15.328Z,81.84
2022-10-02T00:32:46.068Z,81.88
2022-10-02T00:36:16.043Z,81.93
2022-10-02T00:39:21.615Z,82.04
2022-10-02T00:42:38.151Z,82.09
2022-10-02T00:46:02.573Z,82.16
2022-10-02T00:49:48.008Z,82.29
2022-10-02T00:53:12.283Z,82.37
2022-10-02T00:56:28.832Z,82.39
2022-10-02T00:59:57.225Z,82.44
2022-10-02T01:03:17.762Z,82.46
2022-10-02T01:06:25.751Z,82.41
2022-10-02T01:09:28.990Z,82.40
2022-10-02T01:12:31.950Z,82.44
2022-10-02T01:15:38.544Z,82.50
2022-10-02T01:18:42.878Z,82.55
2022-10-02T01:21:52.894Z,82.58
2022-10-02T01:25:04.351Z,82.61
2022-10-02T01:28:07.532Z,82.63
2022-10-02T01:31:13.514Z,82.64
2022-10-02T01:34:16.871Z,82.72
2022-10-02T01:37:26.300Z,82.72
2022-10-02T01:40:34.901Z,82.75
2022-10-02T01:43:42.962Z,82.75
2022-10-02T01:47:07.879Z,82.76
2022-10-02T01:50:24.393Z,82.71
2022-10-02T01:53:40.865Z,82.62
2022-10-02T01:56:55.553Z,82.67
2022-10-02T02:00:16.161Z,82.70
2022-10-02T02:03:24.172Z,82.73
2022-10-02T02:06:50.097Z,82.73
2022-10-02T02:10:17.772Z,82.74
2022-10-02T02:13:29.309Z,82.74
2022-10-02T02:16:40.454Z,82.77
2022-10-02T02:19:50.385Z,82.74
2022-10-02T02:22:56.631Z,82.73
2022-10-02T02:26:04.631Z,82.73
2022-10-02T02:29:09.788Z,82.72
2022-10-02T02:32:18.958Z,82.68
2022-10-02T02:35:33.267Z,82.58
2022-10-02T02:38:40.946Z,82.57
2022-10-02T02:41:50.895Z,82.54
2022-10-02T02:44:59.832Z,82.59
2022-10-02T02:48:09.880Z,82.52
2022-10-02T02:51:21.101Z,82.48
2022-10-02T02:54:31.170Z,82.47
2022-10-02T02:57:53.502Z,82.46
2022-10-02T03:00:56.497Z,82.42
2022-10-02T03:03:59.502Z,82.38
2022-10-02T03:07:05.129Z,82.32
2022-10-02T03:10:25.156Z,82.26
2022-10-02T03:13:36.860Z,82.24
2022-10-02T03:17:00.285Z,82.15
2022-10-02T03:20:11.991Z,82.15
2022-10-02T03:23:25.139Z,82.15
2022-10-02T03:26:41.153Z,82.17
2022-10-02T03:29:51.462Z,82.18
2022-10-02T03:32:56.420Z,82.17
2022-10-02T03:36:00.112Z,82.16
2022-10-02T03:39:25.125Z,82.06
2022-10-02T03:42:33.189Z,82.06
2022-10-02T03:45:52.146Z,81.95
2022-10-02T03:48:56.672Z,81.95
2022-10-02T03:51:59.664Z,81.91
2022-10-02T03:55:13.926Z,81.89
2022-10-02T03:58:18.447Z,81.83
2022-10-02T04:01:27.771Z,81.76
2022-10-02T04:04:56.393Z,81.61
2022-10-02T04:08:15.593Z,81.45
2022-10-02T04:11:29.981Z,81.34
2022-10-02T04:14:39.369Z,81.28
2022-10-02T04:17:58.745Z,81.26
2022-10-02T04:21:11.163Z,81.26
2022-10-02T04:24:29.508Z,81.26
2022-10-02T04:27:50.602Z,81.26
2022-10-02T04:30:54.066Z,81.32
2022-10-02T04:34:02.867Z,81.29
2022-10-02T04:37:17.859Z,81.21
2022-10-02T04:40:54.928Z,81.21
2022-10-02T04:44:10.787Z,81.16
2022-10-02T04:47:37.563Z,81.14
2022-10-02T04:50:56.254Z,81.20
2022-10-02T04:54:13.387Z,81.19
2022-10-02T04:57:28.196Z,81.15
2022-10-02T05:00:42.743Z,81.17
2022-10-02T05:04:25.507Z,81.14
2022-10-02T05:07:41.437Z,81.14
2022-10-02T05:11:04.979Z,81.20
2022-10-02T05:14:38.475Z,81.16
2022-10-02T05:17:57.758Z,81.08
2022-10-02T05:21:21.494Z,81.06
2022-10-02T05:24:46.703Z,81.08
2022-10-02T05:28:16.806Z,80.98
2022-10-02T05:31:48.370Z,80.90
2022-10-02T05:35:20.264Z,80.84
2022-10-02T05:39:02.896Z,80.86
2022-10-02T05:42:21.738Z,80.86
2022-10-02T05:45:33.837Z,80.75
2022-10-02T05:48:46.421Z,80.65
2022-10-02T05:51:59.688Z,80.65
2022-10-02T05:55:06.606Z,80.67
2022-10-02T05:58:31.490Z,80.65
2022-10-02T06:01:39.986Z,80.71
2022-10-02T06:04:53.607Z,80.78
2022-10-02T06:08:02.677Z,80.61
2022-10-02T06:11:11.977Z,80.50
2022-10-02T06:14:23.725Z,80.49
2022-10-02T06:17:33.901Z,80.60
2022-10-02T06:20:43.732Z,80.50
2022-10-02T06:23:52.220Z,80.46
2022-10-02T06:27:04.668Z,80.32
2022-10-02T06:30:12.921Z,80.35
2022-10-02T06:33:28.307Z,80.40
2022-10-02T06:36:48.129Z,80.40
2022-10-02T06:40:18.824Z,80.37
2022-10-02T06:43:35.427Z,80.49
2022-10-02T06:46:51.258Z,80.51
2022-10-02T06:50:12.933Z,80.44
2022-10-02T06:53:22.187Z,80.29
2022-10-02T06:56:34.199Z,80.23
2022-10-02T06:59:51.884Z,80.09
2022-10-02T07:03:06.786Z,80.00
2022-10-02T07:06:22.972Z,79.91
2022-10-02T07:09:55.034Z,79.92
2022-10-02T07:13:12.376Z,79.99
2022-10-02T07:16:58.507Z,80.04
2022-10-02T07:20:33.248Z,79.86
2022-10-02T07:23:45.180Z,79.76
2022-10-02T07:27:07.280Z,79.59
2022-10-02T07:30:17.866Z,79.77
2022-10-02T07:33:35.778Z,79.54
2022-10-02T07:36:44.619Z,79.32
2022-10-02T07:40:10.410Z,79.31
2022-10-02T07:43:25.017Z,79.33
2022-10-02T07:46:46.602Z,79.21
2022-10-02T07:50:12.595Z,79.24
2022-10-02T07:53:21.320Z,79.16
2022-10-02T07:56:25.664Z,78.88
2022-10-02T07:59:31.099Z,78.73
2022-10-02T08:02:43.240Z,78.52
2022-10-02T08:05:49.706Z,78.42
2022-10-02T08:08:57.043Z,78.53
2022-10-02T08:12:09.409Z,78.53
2022-10-02T08:15:15.807Z,78.38
2022-10-02T08:18:34.773Z,78.48
2022-10-02T08:21:46.934Z,78.38
2022-10-02T08:24:57.609Z,78.39
2022-10-02T08:28:12.200Z,78.34
2022-10-02T08:31:16.107Z,78.30
2022-10-02T08:34:22.160Z,78.08
2022-10-02T08:37:37.343Z,78.23
2022-10-02T08:40:56.084Z,78.07
2022-10-02T08:44:36.608Z,78.05
2022-10-02T08:48:06.375Z,78.06
2022-10-02T08:51:28.143Z,77.80
2022-10-02T08:54:50.557Z,77.92
2022-10-02T08:58:24.143Z,77.99
2022-10-02T09:01:27.316Z,78.08
2022-10-02T09:05:04.226Z,77.91
2022-10-02T09:08:13.597Z,77.69
2022-10-02T09:11:59.263Z,77.87
2022-10-02T09:15:16.029Z,77.94
2022-10-02T09:18:40.533Z,77.53
2022-10-02T09:21:56.248Z,77.35
2022-10-02T09:25:24.074Z,76.65
2022-10-02T09:28:36.719Z,76.30
2022-10-02T09:32:11.397Z,75.91
2022-10-02T09:35:38.554Z,75.34
2022-10-02T09:39:25.161Z,75.22
2022-10-02T09:42:43.563Z,75.15
2022-10-02T09:46:16.248Z,74.70
2022-10-02T09:49:44.438Z,74.45
2022-10-02T09:53:05.831Z,73.87
2022-10-02T09:56:18.880Z,73.87
2022-10-02T10:00:07.611Z,73.32
2022-10-02T10:03:50.582Z,73.00
2022-10-02T10:07:19.202Z,72.94
2022-10-02T10:10:55.404Z,72.64
2022-10-02T10:14:27.903Z,72.69
2022-10-02T10:18:08.756Z,72.59
2022-10-02T10:21:51.645Z,72.57
2022-10-02T10:25:05.614Z,72.57
2022-10-02T10:28:34.238Z,72.87
2022-10-02T10:37:17.473Z,72.97
2022-10-02T10:40:38.552Z,72.36
2022-10-02T10:47:38.684Z,71.22
2022-10-02T10:51:31.718Z,71.43
2022-10-02T10:54:49.023Z,72.21
2022-10-02T10:58:07.147Z,72.34
2022-10-02T11:01:21.629Z,72.02
2022-10-02T11:04:53.389Z,72.56
2022-10-02T11:08:43.315Z,72.75
2022-10-02T11:12:04.230Z,73.03
2022-10-02T11:15:45.836Z,73.27
2022-10-02T11:19:21.658Z,72.66
2022-10-02T11:22:37.987Z,72.60
2022-10-02T11:26:05.858Z,72.28
2022-10-02T11:29:27.945Z,71.90
2022-10-02T11:32:34.098Z,72.26
2022-10-02T11:36:01.775Z,71.95
2022-10-02T11:39:52.468Z,71.50
2022-10-02T11:47:37.090Z,71.35
2022-10-02T11:52:18.919Z,70.85
2022-10-02T11:55:43.180Z,70.74
2022-10-02T11:59:19.269Z,70.04
2022-10-02T12:02:37.437Z,69.55
2022-10-02T12:05:55.622Z,69.14
2022-10-02T12:09:41.746Z,69.35
2022-10-02T12:13:27.005Z,68.85
2022-10-02T12:16:51.136Z,68.23
2022-10-02T12:20:37.798Z,67.43
2022-10-02T12:24:22.905Z,66.68
2022-10-02T12:27:44.427Z,66.90
2022-10-02T12:31:01.910Z,66.68
2022-10-02T12:34:14.903Z,66.66
2022-10-02T12:37:51.528Z,66.76
2022-10-02T12:41:10.042Z,66.37
2022-10-02T12:44:43.067Z,66.70
2022-10-02T12:48:10.059Z,66.75
2022-10-02T12:51:38.141Z,67.06
2022-10-02T12:55:13.691Z,67.30
2022-10-02T12:58:24.327Z,66.71
2022-10-02T13:01:38.065Z,66.91
2022-10-02T13:05:22.495Z,67.13
2022-10-02T13:08:37.314Z,67.38
2022-10-02T13:12:05.585Z,67.97
2022-10-02T13:15:39.183Z,68.71
2022-10-02T13:18:52.240Z,68.64
2022-10-02T13:22:02.543Z,69.26
2022-10-02T13:25:39.780Z,68.99
2022-10-02T13:29:03.122Z,68.88
2022-10-02T13:32:20.632Z,69.18
2022-10-02T13:35:34.554Z,69.33
2022-10-02T13:38:44.978Z,69.94
2022-10-02T13:42:18.980Z,70.13
2022-10-02T13:45:29.169Z,70.72
2022-10-02T13:48:33.795Z,71.73
2022-10-02T13:52:12.076Z,72.59
2022-10-02T13:55:29.208Z,73.35
2022-10-02T13:58:55.917Z,74.24
2022-10-02T14:02:12.705Z,76.45
2022-10-02T14:05:23.958Z,75.95
2022-10-02T14:09:02.449Z,75.93
2022-10-02T14:12:31.961Z,75.60
2022-10-02T14:15:45.650Z,75.71
2022-10-02T14:19:07.496Z,75.36
2022-10-02T14:22:18.190Z,74.71
2022-10-02T14:25:42.279Z,73.58
2022-10-02T14:28:50.669Z,72.60
2022-10-02T14:32:27.325Z,72.63
2022-10-02T14:35:47.271Z,72.95
2022-10-02T14:39:09.005Z,72.74
2022-10-02T14:42:22.439Z,73.07
2022-10-02T14:45:58.228Z,72.89
2022-10-02T14:49:26.819Z,72.38
2022-10-02T14:52:48.237Z,73.05
2022-10-02T14:55:49.722Z,73.50
2022-10-02T14:59:09.563Z,73.81
2022-10-02T15:02:19.817Z,74.37
2022-10-02T15:05:30.922Z,74.73
2022-10-02T15:09:11.000Z,74.78
2022-10-02T15:12:19.009Z,75.10
2022-10-02T15:16:14.819Z,75.52
2022-10-02T15:19:34.650Z,75.97
2022-10-02T15:22:47.731Z,76.45
2022-10-02T15:26:22.367Z,76.57
2022-10-02T15:29:33.788Z,76.73
2022-10-02T15:33:11.313Z,76.67
2022-10-02T15:36:26.191Z,76.83
2022-10-02T15:39:46.868Z,76.96
2022-10-02T15:43:23.857Z,77.02
2022-10-02T15:46:53.919Z,77.10
2022-10-02T15:50:26.368Z,77.23
2022-10-02T15:53:36.981Z,77.46
2022-10-02T15:56:57.464Z,77.60
2022-10-02T16:00:11.891Z,77.71
2022-10-02T16:03:21.871Z,77.87
2022-10-02T16:06:53.790Z,78.06
2022-10-02T16:10:13.050Z,78.23
2022-10-02T16:13:25.053Z,78.34
2022-10-02T16:16:33.713Z,78.48
2022-10-02T16:19:47.517Z,78.54
2022-10-02T16:22:49.005Z,78.70
2022-10-02T16:26:37.308Z,78.69
2022-10-02T16:30:13.928Z,78.74
2022-10-02T16:33:47.166Z,78.83
2022-10-02T16:37:00.978Z,79.01
2022-10-02T16:40:40.272Z,79.10
2022-10-02T16:43:42.951Z,79.27
2022-10-02T16:46:51.533Z,79.35
2022-10-02T16:50:01.896Z,79.39
2022-10-02T16:53:32.703Z,79.36
2022-10-02T16:56:50.567Z,79.38
2022-10-02T17:00:29.583Z,79.47
2022-10-02T17:03:36.170Z,79.40
2022-10-02T17:06:53.604Z,79.43
2022-10-02T17:10:07.034Z,79.39
2022-10-02T17:13:47.399Z,79.42
2022-10-02T17:17:22.981Z,79.32
2022-10-02T17:20:54.198Z,79.26
2022-10-02T17:24:49.098Z,79.23
2022-10-02T17:28:57.077Z,79.27
2022-10-02T17:32:00.967Z,79.35
2022-10-02T17:35:28.341Z,79.40
2022-10-02T17:39:12.637Z,79.47
2022-10-02T17:42:27.737Z,79.54
2022-10-02T17:45:45.135Z,79.65
2022-10-02T17:49:00.534Z,79.72
2022-10-02T17:52:42.403Z,79.81
2022-10-02T17:56:36.324Z,79.80
2022-10-02T18:00:02.841Z,79.74
2022-10-02T18:03:38.564Z,79.87
2022-10-02T18:07:12.968Z,80.01
2022-10-02T18:10:40.618Z,80.11
2022-10-02T18:14:23.762Z,80.22
2022-10-02T18:17:54.952Z,80.26
2022-10-02T18:21:16.034Z,80.29
2022-10-02T18:24:41.390Z,80.25
2022-10-02T18:28:09.304Z,80.21
2022-10-02T18:31:54.782Z,80.12
2022-10-02T18:35:38.487Z,80.00
2022-10-02T18:43:59.190Z,79.92
2022-10-02T18:47:21.810Z,79.77
2022-10-02T18:50:30.013Z,79.61
2022-10-02T18:54:32.959Z,79.52
2022-10-02T18:58:21.337Z,79.18
2022-10-02T19:02:06.070Z,78.95
2022-10-02T19:05:45.616Z,78.82
2022-10-02T19:09:09.255Z,78.57
2022-10-02T19:12:14.910Z,78.45
2022-10-02T19:15:28.760Z,78.30
2022-10-02T19:18:32.748Z,78.35
2022-10-02T19:21:36.743Z,78.28
2022-10-02T19:24:46.259Z,78.24
2022-10-02T19:27:54.881Z,78.24
2022-10-02T19:31:03.190Z,78.16
2022-10-02T19:34:16.767Z,78.10
2022-10-02T19:37:18.832Z,78.06
2022-10-02T19:40:27.015Z,78.01
2022-10-02T19:43:34.201Z,77.92
2022-10-02T19:46:40.517Z,77.91
2022-10-02T19:49:46.851Z,77.95
2022-10-02T19:52:58.280Z,77.90
2022-10-02T19:56:06.057Z,77.94
2022-10-02T19:59:26.926Z,77.93
2022-10-02T20:02:37.884Z,77.91
2022-10-02T20:05:41.438Z,77.92
2022-10-02T20:09:00.590Z,77.92
2022-10-02T20:12:16.607Z,77.95
2022-10-02T20:15:45.228Z,77.96
2022-10-02T20:18:50.201Z,77.96
2022-10-02T20:21:57.454Z,78.01
2022-10-02T20:25:17.637Z,78.02
2022-10-02T20:28:45.296Z,78.00
2022-10-02T20:31:54.113Z,78.08
2022-10-02T20:35:05.911Z,78.08
2022-10-02T20:38:19.414Z,78.07
2022-10-02T20:41:26.667Z,78.07
2022-10-02T20:44:32.586Z,78.10
2022-10-02T20:47:49.457Z,78.15
2022-10-02T20:51:13.304Z,78.21
2022-10-02T20:54:14.794Z,78.23
2022-10-02T20:58:04.680Z,78.34
2022-10-02T21:01:33.288Z,78.41
2022-10-02T21:04:49.036Z,78.47
2022-10-02T21:08:25.632Z,78.48
2022-10-02T21:11:38.737Z,78.45
2022-10-02T21:15:09.559Z,78.52
2022-10-02T21:18:47.484Z,78.53
2022-10-02T21:22:23.117Z,78.63
2022-10-02T21:25:42.944Z,78.72
2022-10-02T21:28:59.318Z,78.82
2022-10-02T21:32:32.674Z,79.03
2022-10-02T21:35:40.561Z,79.16
2022-10-02T21:38:56.935Z,79.24
2022-10-02T21:42:33.933Z,79.30
2022-10-02T21:45:56.892Z,79.34
2022-10-02T21:49:00.912Z,79.31
2022-10-02T21:52:14.424Z,79.34
2022-10-02T21:55:40.561Z,79.38
2022-10-02T21:59:19.392Z,79.38
2022-10-02T22:02:39.183Z,79.46
2022-10-02T22:06:04.536Z,79.48
2022-10-02T22:09:09.853Z,79.51
2022-10-02T22:12:22.570Z,79.52
2022-10-02T22:15:50.491Z,79.49
2022-10-02T22:19:01.129Z,79.45
2022-10-02T22:22:29.412Z,79.33
2022-10-02T22:25:33.733Z,79.20
2022-10-02T22:28:44.400Z,79.15
2022-10-02T22:32:44.494Z,79.07
2022-10-02T22:36:00.996Z,79.01
2022-10-02T22:39:16.087Z,79.06
2022-10-02T22:42:40.889Z,79.08
2022-10-02T22:45:50.119Z,79.12
2022-10-02T22:49:14.565Z,79.15
2022-10-02T22:52:37.225Z,79.12
2022-10-02T22:55:48.166Z,79.19
2022-10-02T22:59:12.426Z,79.24
2022-10-02T23:02:25.321Z,79.31
2022-10-02T23:05:41.239Z,79.35
2022-10-02T23:09:06.400Z,79.41
2022-10-02T23:12:38.152Z,79.45
2022-10-02T23:15:50.709Z,79.49
2022-10-02T23:19:02.979Z,79.56
2022-10-02T23:22:17.139Z,79.64
2022-10-02T23:25:34.222Z,79.70
2022-10-02T23:29:11.607Z,79.74
2022-10-02T23:32:16.758Z,79.81
2022-10-02T23:35:33.231Z,79.84
2022-10-02T23:38:46.238Z,79.82
2022-10-02T23:41:53.564Z,79.81
2022-10-02T23:45:10.403Z,79.85
2022-10-02T23:48:13.829Z,79.92
2022-10-02T23:51:27.355Z,79.88
2022-10-02T23:54:51.921Z,79.89
2022-10-02T23:58:13.197Z,79.92
